Time;durP1;ratioP1;P1;durP2;ratioP2;P2;SDS_P1;SDS_P2;PMS_P1;PMS_P2;Temp;Humidity;BMP_temperature;BMP_pressure;BME280_temperature;BME280_humidity;BME280_pressure;Samples;Min_cycle;Max_cycle;Signal;HPM_P1;HPM_P2
2020/12/06 00:00:56;;;;;;;59.03;30.48;;;;;;;4.21;88.85;97515.78;5115099;28;20096;-72
2020/12/06 00:03:21;;;;;;;56.65;30.02;;;;;;;4.13;89.18;97500.63;5114639;28;20050;-71
2020/12/06 00:05:47;;;;;;;56.42;31.73;;;;;;;4.22;88.93;97491.53;5115110;28;20040;-72
2020/12/06 00:08:13;;;;;;;54.05;28.92;;;;;;;4.27;88.76;97510.25;5114060;28;20035;-70
2020/12/06 00:10:39;;;;;;;54.17;30.08;;;;;;;4.33;88.19;97496.94;5113167;28;20051;-70
2020/12/06 00:13:05;;;;;;;50.03;28.58;;;;;;;4.35;88.31;97513.25;5114591;28;20044;-72
2020/12/06 00:15:30;;;;;;;52.55;29.90;;;;;;;4.23;88.51;97496.63;5115162;28;20113;-71
2020/12/06 00:17:56;;;;;;;51.22;30.90;;;;;;;4.08;89.51;97497.47;5114618;27;20051;-71
2020/12/06 00:20:23;;;;;;;53.40;31.45;;;;;;;4.04;89.90;97512.34;5115050;28;20047;-71
2020/12/06 00:22:49;;;;;;;57.60;31.25;;;;;;;4.09;89.71;97501.72;5114753;28;20043;-70
2020/12/06 00:25:14;;;;;;;60.35;31.70;;;;;;;3.96;89.78;97504.16;5114589;28;20641;-72
2020/12/06 00:27:40;;;;;;;57.38;32.30;;;;;;;3.87;90.97;97515.03;5114674;28;20048;-71
2020/12/06 00:30:09;;;;;;;55.55;31.42;;;;;;;3.76;91.06;97513.00;5114122;28;20085;-71
2020/12/06 00:32:37;;;;;;;56.03;31.73;;;;;;;3.83;91.11;97511.75;5114458;28;20050;-71
2020/12/06 00:35:06;;;;;;;57.30;31.77;;;;;;;3.69;92.29;97506.47;5112353;28;20147;-70
2020/12/06 00:37:32;;;;;;;55.53;31.80;;;;;;;3.73;92.44;97521.75;5114324;28;20032;-72
2020/12/06 00:39:57;;;;;;;59.55;31.90;;;;;;;3.53;92.60;97496.91;5113110;28;20054;-71
2020/12/06 00:42:23;;;;;;;61.92;32.88;;;;;;;3.58;93.18;97507.88;5114678;28;20039;-71
2020/12/06 00:44:49;;;;;;;56.53;32.28;;;;;;;3.61;92.91;97501.69;5114392;28;20058;-71
2020/12/06 00:47:15;;;;;;;55.78;31.52;;;;;;;3.62;93.69;97510.31;5113977;28;20619;-71
2020/12/06 00:49:41;;;;;;;54.70;31.23;;;;;;;3.73;93.16;97507.97;5114581;28;20040;-71
2020/12/06 00:52:07;;;;;;;57.55;31.63;;;;;;;3.59;93.46;97506.13;5112256;28;20051;-71
2020/12/06 00:54:33;;;;;;;53.15;30.13;;;;;;;3.50;93.72;97512.63;5114097;28;20039;-71
2020/12/06 00:56:59;;;;;;;56.83;33.40;;;;;;;3.66;94.05;97527.34;5112779;28;20073;-72
2020/12/06 00:59:25;;;;;;;54.45;32.20;;;;;;;3.66;93.67;97525.63;5114036;28;20048;-71
2020/12/06 01:01:51;;;;;;;52.22;31.20;;;;;;;3.59;94.22;97532.03;5114013;28;20067;-71
2020/12/06 01:04:17;;;;;;;58.28;32.20;;;;;;;3.73;94.19;97536.50;5111784;28;20100;-71
2020/12/06 01:06:43;;;;;;;56.38;32.97;;;;;;;3.66;93.80;97536.00;5113406;28;20039;-71
2020/12/06 01:09:08;;;;;;;54.70;31.25;;;;;;;3.51;94.63;97539.38;5112136;28;20070;-71
2020/12/06 01:11:34;;;;;;;58.97;32.58;;;;;;;3.64;94.57;97534.38;5114003;27;20031;-71
2020/12/06 01:14:00;;;;;;;57.78;33.10;;;;;;;3.61;95.23;97537.13;5113036;28;20048;-71
2020/12/06 01:16:26;;;;;;;56.88;33.03;;;;;;;3.40;95.33;97537.34;5112753;28;20505;-71
2020/12/06 01:18:52;;;;;;;61.40;33.78;;;;;;;3.37;96.92;97543.50;5113956;28;20067;-71
2020/12/06 01:21:18;;;;;;;61.60;33.75;;;;;;;3.59;95.83;97550.19;5112803;28;20125;-70
2020/12/06 01:23:43;;;;;;;59.90;33.10;;;;;;;3.55;95.46;97527.91;5093986;28;20052;-72
2020/12/06 01:26:10;;;;;;;55.10;31.48;;;;;;;3.60;95.20;97544.09;5113016;28;20047;-71
2020/12/06 01:28:36;;;;;;;56.00;32.25;;;;;;;3.50;95.50;97543.72;5113734;28;20054;-71
2020/12/06 01:31:01;;;;;;;57.20;32.05;;;;;;;3.45;96.37;97545.72;5112636;27;20047;-71
2020/12/06 01:33:28;;;;;;;57.85;32.47;;;;;;;3.39;97.51;97540.84;5113527;28;20047;-71
2020/12/06 01:35:53;;;;;;;53.75;30.20;;;;;;;3.34;97.73;97532.47;5113350;28;20035;-71
2020/12/06 01:38:19;;;;;;;55.08;31.58;;;;;;;3.45;97.53;97535.34;5113057;28;20104;-71
2020/12/06 01:40:45;;;;;;;54.47;31.10;;;;;;;3.47;97.17;97538.69;5113504;28;20092;-71
2020/12/06 01:43:11;;;;;;;53.58;31.05;;;;;;;3.50;97.63;97528.16;5112668;28;20051;-71
2020/12/06 01:45:38;;;;;;;48.88;29.40;;;;;;;3.62;96.58;97525.88;5112439;28;20040;-71
2020/12/06 01:48:07;;;;;;;51.75;30.35;;;;;;;3.58;96.61;97520.84;5111854;28;20044;-71
2020/12/06 01:50:40;;;;;;;51.33;30.58;;;;;;;3.67;96.57;97526.44;5113043;28;20043;-71
2020/12/06 01:53:07;;;;;;;48.85;28.77;;;;;;;3.59;95.78;97506.94;5112289;28;20043;-71
2020/12/06 01:55:34;;;;;;;52.40;29.27;;;;;;;3.67;95.73;97503.94;5113203;28;20405;-71
2020/12/06 01:58:04;;;;;;;47.15;26.95;;;;;;;3.70;95.32;97511.56;5113145;28;20052;-77
2020/12/06 02:00:31;;;;;;;45.92;27.77;;;;;;;3.76;95.06;97502.63;5112950;28;20050;-71
2020/12/06 02:02:58;;;;;;;49.33;28.63;;;;;;;3.74;95.20;97494.09;5105884;28;20039;-71
2020/12/06 02:05:25;;;;;;;50.22;27.90;;;;;;;3.62;95.31;97505.13;5095465;28;20056;-71
2020/12/06 02:07:52;;;;;;;53.15;28.92;;;;;;;3.44;95.68;97487.03;5106027;28;20106;-71
2020/12/06 02:10:18;;;;;;;49.50;29.13;;;;;;;3.58;95.15;97494.06;5112435;28;20044;-71
2020/12/06 02:12:46;;;;;;;52.70;29.52;;;;;;;3.76;94.04;97508.66;5112690;28;20469;-72
2020/12/06 02:15:12;;;;;;;51.00;29.15;;;;;;;3.79;94.02;97499.06;5112651;28;20067;-72
2020/12/06 02:17:38;;;;;;;47.75;28.17;;;;;;;3.84;93.18;97508.22;5111508;28;20035;-71
2020/12/06 02:20:03;;;;;;;50.50;28.42;;;;;;;3.77;93.67;97504.31;5112184;28;20053;-71
2020/12/06 02:22:30;;;;;;;54.25;29.45;;;;;;;3.74;94.36;97520.03;5112384;28;20055;-71
2020/12/06 02:24:55;;;;;;;48.45;28.70;;;;;;;3.69;94.34;97516.81;5111936;28;20036;-71
2020/12/06 02:27:21;;;;;;;51.90;30.40;;;;;;;3.68;94.23;97507.41;5112270;28;20036;-71
2020/12/06 02:29:47;;;;;;;48.67;29.40;;;;;;;3.49;95.31;97505.78;5112152;28;20098;-71
2020/12/06 02:32:13;;;;;;;46.92;29.17;;;;;;;3.33;96.16;97499.72;5111944;28;20138;-71
2020/12/06 02:34:39;;;;;;;59.78;33.20;;;;;;;3.37;97.73;97524.56;5112540;28;20126;-71
2020/12/06 02:37:05;;;;;;;51.85;31.73;;;;;;;3.50;96.57;97520.38;5111614;28;20119;-73
2020/12/06 02:39:31;;;;;;;53.63;32.47;;;;;;;3.29;97.11;97518.91;5111870;28;20127;-72
2020/12/06 02:41:57;;;;;;;57.05;33.40;;;;;;;3.30;97.63;97525.78;5112619;28;20059;-71
2020/12/06 02:44:23;;;;;;;55.78;33.90;;;;;;;3.25;97.97;97538.94;5111064;28;20043;-72
2020/12/06 02:46:48;;;;;;;58.97;34.30;;;;;;;3.24;98.82;97537.28;5111279;28;20062;-71
2020/12/06 02:49:14;;;;;;;58.65;33.28;;;;;;;3.19;99.08;97539.25;5111945;28;20047;-72
2020/12/06 02:51:40;;;;;;;59.75;34.17;;;;;;;3.09;100.00;97533.72;5112156;28;20046;-71
2020/12/06 02:54:06;;;;;;;56.90;32.88;;;;;;;3.23;99.29;97527.84;5110643;28;20044;-72
2020/12/06 02:56:32;;;;;;;54.58;32.75;;;;;;;3.12;99.19;97533.56;5112535;28;20092;-72
2020/12/06 02:58:58;;;;;;;55.67;33.03;;;;;;;3.04;100.00;97530.50;5112141;28;20406;-71
2020/12/06 03:01:30;;;;;;;57.92;32.90;;;;;;;3.04;100.00;97540.88;5111787;28;20051;-70
2020/12/06 03:03:57;;;;;;;54.55;32.13;;;;;;;3.05;100.00;97532.19;5112128;28;20111;-71
2020/12/06 03:06:23;;;;;;;59.42;32.97;;;;;;;3.06;100.00;97533.88;5111553;28;20050;-70
2020/12/06 03:08:49;;;;;;;59.63;33.63;;;;;;;2.96;100.00;97528.28;5111370;28;20047;-70
2020/12/06 03:11:15;;;;;;;57.33;32.85;;;;;;;3.09;100.00;97527.69;5111567;28;20075;-74
2020/12/06 03:13:41;;;;;;;60.78;32.95;;;;;;;3.00;100.00;97521.22;5110910;28;20047;-71
2020/12/06 03:16:06;;;;;;;59.15;32.72;;;;;;;3.10;100.00;97525.00;5110393;28;20051;-72
2020/12/06 03:18:32;;;;;;;55.45;32.00;;;;;;;3.25;100.00;97527.75;5112305;28;20062;-70
2020/12/06 03:20:59;;;;;;;57.05;31.90;;;;;;;3.18;99.22;97525.50;5112004;28;20054;-70
2020/12/06 03:23:25;;;;;;;53.78;31.33;;;;;;;3.13;99.90;97514.50;5110701;28;20050;-70
2020/12/06 03:25:50;;;;;;;49.03;30.75;;;;;;;3.20;98.81;97500.34;5111955;28;20039;-70
2020/12/06 03:28:17;;;;;;;49.45;29.65;;;;;;;3.14;98.52;97512.78;5111488;28;20047;-70
2020/12/06 03:30:42;;;;;;;53.95;31.85;;;;;;;3.15;99.26;97511.84;5093759;28;20515;-70
2020/12/06 03:33:08;;;;;;;51.08;30.38;;;;;;;3.29;98.92;97513.72;5111320;28;20044;-70
2020/12/06 03:35:34;;;;;;;48.92;30.48;;;;;;;3.28;97.40;97504.28;5112140;28;20057;-70
2020/12/06 03:38:00;;;;;;;50.80;30.30;;;;;;;3.23;97.91;97514.91;5111493;28;20398;-70
2020/12/06 03:40:26;;;;;;;55.42;32.15;;;;;;;3.23;98.24;97515.72;5110293;28;20635;-70
2020/12/06 03:42:53;;;;;;;59.75;34.10;;;;;;;3.22;98.60;97524.41;5093662;28;20071;-70
2020/12/06 03:45:19;;;;;;;60.72;35.25;;;;;;;3.16;98.84;97516.94;5111540;28;20089;-72
2020/12/06 03:47:45;;;;;;;58.47;33.88;;;;;;;3.26;97.96;97516.47;5115921;28;20549;-71
2020/12/06 03:50:11;;;;;;;64.25;35.33;;;;;;;3.12;98.48;97509.41;5114900;28;20497;-72
2020/12/06 03:52:37;;;;;;;66.20;35.92;;;;;;;3.34;97.75;97512.56;5093241;28;20044;-72
2020/12/06 03:55:03;;;;;;;70.13;35.53;;;;;;;3.26;97.98;97524.25;5061757;28;20053;-71
2020/12/06 03:57:29;;;;;;;71.65;38.90;;;;;;;3.10;98.47;97522.44;5054749;28;20076;-71
2020/12/06 03:59:55;;;;;;;71.18;37.88;;;;;;;2.99;99.80;97519.56;5037964;28;20120;-71
2020/12/06 04:02:20;;;;;;;71.05;39.95;;;;;;;3.07;99.17;97522.59;5034746;28;20049;-71
2020/12/06 04:04:47;;;;;;;82.43;38.17;;;;;;;3.01;99.01;97528.94;5034999;28;20053;-71
2020/12/06 04:07:12;;;;;;;79.07;42.03;;;;;;;2.93;100.00;97525.03;5047333;28;20059;-71
2020/12/06 04:09:38;;;;;;;81.97;43.58;;;;;;;2.82;100.00;97526.38;5054646;28;20053;-71
2020/12/06 04:12:04;;;;;;;78.35;44.13;;;;;;;2.80;100.00;97533.41;5054553;28;20040;-71
2020/12/06 04:14:30;;;;;;;79.40;42.90;;;;;;;2.95;100.00;97525.78;5054112;28;20049;-71
2020/12/06 04:16:55;;;;;;;80.80;43.38;;;;;;;2.87;100.00;97518.41;5053487;28;20045;-71
2020/12/06 04:19:21;;;;;;;85.75;43.97;;;;;;;2.88;100.00;97524.44;5040285;28;20069;-71
2020/12/06 04:21:47;;;;;;;65.97;38.05;;;;;;;2.93;100.00;97532.81;5034224;28;20049;-71
2020/12/06 04:24:13;;;;;;;70.13;35.30;;;;;;;2.95;100.00;97531.81;5033524;28;20548;-71
2020/12/06 04:26:39;;;;;;;68.78;36.22;;;;;;;3.03;100.00;97527.09;5034438;28;20438;-71
2020/12/06 04:29:05;;;;;;;63.88;35.10;;;;;;;3.09;100.00;97538.91;5034382;28;20116;-71
2020/12/06 04:31:31;;;;;;;61.22;31.83;;;;;;;3.15;100.00;97536.00;5033878;28;20401;-71
2020/12/06 04:33:57;;;;;;;60.20;31.60;;;;;;;3.16;99.89;97536.81;5034190;28;20075;-71
2020/12/06 04:36:23;;;;;;;66.43;33.05;;;;;;;3.13;100.00;97544.75;5033400;28;20052;-71
2020/12/06 04:38:48;;;;;;;54.25;30.95;;;;;;;3.28;98.38;97538.81;5045367;28;20501;-71
2020/12/06 04:41:14;;;;;;;60.78;32.42;;;;;;;3.15;99.92;97543.78;5044999;28;20091;-71
2020/12/06 04:43:40;;;;;;;59.10;32.63;;;;;;;3.32;100.00;97552.44;5037555;28;20116;-71
2020/12/06 04:46:07;;;;;;;55.38;31.48;;;;;;;3.49;98.66;97539.47;5080910;28;20074;-71
2020/12/06 04:48:56;;;;;;;49.05;30.23;;;;;;;3.50;98.63;97530.75;5060186;28;20041;-71
2020/12/06 04:51:27;;;;;;;57.88;29.85;;;;;;;3.55;98.42;97536.56;5033203;28;20448;-71
2020/12/06 04:54:04;;;;;;;56.88;29.38;;;;;;;3.49;98.53;97539.47;5033964;28;20436;-71
2020/12/06 04:56:31;;;;;;;52.60;28.58;;;;;;;3.46;99.05;97547.41;5033452;28;20038;-72
2020/12/06 04:59:02;;;;;;;45.20;27.30;;;;;;;3.67;97.56;97545.41;5053203;28;20090;-71
2020/12/06 05:01:39;;;;;;;44.88;27.38;;;;;;;3.64;96.72;97547.34;5037939;28;20041;-71
2020/12/06 05:04:13;;;;;;;47.55;27.08;;;;;;;3.51;96.59;97550.56;5045480;28;20060;-70
2020/12/06 05:06:40;;;;;;;40.25;26.08;;;;;;;3.46;97.57;97549.97;5043210;28;20048;-71
2020/12/06 05:09:12;;;;;;;44.20;26.63;;;;;;;3.40;98.47;97564.09;5053480;28;20045;-70
2020/12/06 05:11:40;;;;;;;43.63;27.40;;;;;;;3.23;99.28;97544.22;5053454;28;20459;-71
2020/12/06 05:14:06;;;;;;;48.28;28.58;;;;;;;3.34;99.21;97548.84;5053649;28;20045;-70
2020/12/06 05:16:36;;;;;;;47.35;28.58;;;;;;;3.17;99.80;97560.06;5052964;28;20132;-71
2020/12/06 05:19:12;;;;;;;44.22;27.05;;;;;;;3.15;99.41;97566.22;5051256;28;20045;-71
2020/12/06 05:21:40;;;;;;;49.42;29.77;;;;;;;3.35;99.28;97575.59;5052792;28;20056;-71
2020/12/06 05:24:07;;;;;;;48.53;29.25;;;;;;;3.31;99.99;97561.97;5053048;28;20489;-71
2020/12/06 05:26:34;;;;;;;49.28;29.42;;;;;;;3.34;99.83;97558.38;5052347;28;20041;-71
2020/12/06 05:29:02;;;;;;;47.20;29.67;;;;;;;3.26;99.79;97556.19;5052739;28;20046;-71
2020/12/06 05:31:28;;;;;;;51.45;29.60;;;;;;;3.30;100.00;97549.09;5050472;28;20048;-71
2020/12/06 05:33:54;;;;;;;48.70;29.13;;;;;;;3.17;99.72;97544.53;5052678;28;20045;-71
2020/12/06 05:36:21;;;;;;;48.80;28.75;;;;;;;3.31;99.85;97545.59;5052549;28;20048;-71
2020/12/06 05:38:47;;;;;;;44.95;28.55;;;;;;;3.32;100.00;97539.47;5038420;28;20046;-71
2020/12/06 05:41:13;;;;;;;49.80;30.23;;;;;;;3.21;100.00;97547.78;5049172;28;20454;-77
2020/12/06 05:43:39;;;;;;;50.25;30.02;;;;;;;3.17;100.00;97530.75;5052856;28;20061;-71
2020/12/06 05:46:13;;;;;;;52.85;31.50;;;;;;;3.36;100.00;97525.44;5053015;28;20102;-71
2020/12/06 05:48:41;;;;;;;50.55;28.92;;;;;;;3.34;100.00;97510.00;5043979;28;20061;-71
2020/12/06 05:51:08;;;;;;;45.55;27.73;;;;;;;3.44;100.00;97507.75;5032909;28;20091;-71
2020/12/06 05:53:34;;;;;;;42.80;27.02;;;;;;;3.57;99.88;97521.75;5014653;28;20045;-71
2020/12/06 05:56:07;;;;;;;48.38;28.77;;;;;;;3.55;99.97;97510.63;5031277;28;20117;-71
2020/12/06 05:58:33;;;;;;;;;;;;;;;3.65;99.53;97520.53;5042941;28;20052;-71
2020/12/06 06:01:01;;;;;;;44.88;26.88;;;;;;;3.69;98.85;97485.72;5050565;28;20299;-71
2020/12/06 06:03:29;;;;;;;44.40;27.05;;;;;;;3.81;98.52;97504.97;5051037;28;20136;-73
2020/12/06 06:05:56;;;;;;;42.38;25.17;;;;;;;3.81;98.33;97489.41;5052718;28;20076;-74
2020/12/06 06:08:26;;;;;;;42.35;24.73;;;;;;;3.83;97.69;97496.22;5049964;28;20041;-72
2020/12/06 06:11:19;;;;;;;39.88;23.77;;;;;;;3.78;98.11;97508.56;5032355;28;20037;-72
2020/12/06 06:14:04;;;;;;;;;;;;;;;4.05;97.19;97510.59;5031781;28;20050;-75
2020/12/06 06:16:34;;;;;;;34.28;22.50;;;;;;;3.88;97.62;97516.72;5032215;28;19921;-74
2020/12/06 06:19:03;;;;;;;39.42;24.02;;;;;;;3.89;98.08;97513.16;5032581;28;20107;-74
2020/12/06 06:21:35;;;;;;;38.10;23.90;;;;;;;3.93;97.75;97509.50;5031954;28;20046;-73
2020/12/06 06:24:06;;;;;;;38.17;23.50;;;;;;;3.90;97.22;97497.53;5038450;28;20069;-73
2020/12/06 06:26:36;;;;;;;35.47;23.13;;;;;;;3.84;97.42;97538.53;5043900;28;20391;-72
2020/12/06 06:29:10;;;;;;;38.40;23.70;;;;;;;3.94;97.51;97521.56;5036694;28;20046;-72
2020/12/06 06:31:36;;;;;;;37.13;23.30;;;;;;;3.81;97.17;97542.09;5041435;28;20086;-73
2020/12/06 06:34:05;;;;;;;41.40;25.17;;;;;;;3.74;97.66;97540.78;5052352;28;20049;-74
2020/12/06 06:36:32;;;;;;;39.92;25.02;;;;;;;3.80;97.34;97539.59;5051768;28;20069;-73
2020/12/06 06:38:58;;;;;;;39.63;25.50;;;;;;;3.82;96.89;97554.16;5048785;28;20105;-74
2020/12/06 06:41:25;;;;;;;38.17;24.02;;;;;;;3.68;97.75;97556.66;5051473;28;20049;-75
2020/12/06 06:43:57;;;;;;;40.17;24.30;;;;;;;3.56;98.10;97553.75;5052267;28;20098;-74
2020/12/06 06:46:30;;;;;;;;;;;;;;;3.70;98.51;97560.00;5051626;28;20056;-73
2020/12/06 06:48:56;;;;;;;37.88;23.17;;;;;;;3.76;97.27;97559.66;5051899;28;19927;-73
2020/12/06 06:51:23;;;;;;;38.35;23.55;;;;;;;3.91;96.62;97558.84;5067041;28;20049;-73
2020/12/06 06:53:50;;;;;;;34.63;22.27;;;;;;;4.11;96.35;97554.38;5052075;28;20049;-73
2020/12/06 06:56:21;;;;;;;38.28;22.33;;;;;;;3.97;96.87;97572.41;5051952;28;20055;-75
2020/12/06 06:58:48;;;;;;;34.92;22.65;;;;;;;4.11;96.18;97575.13;5040533;28;20430;-74
2020/12/06 07:01:15;;;;;;;36.40;22.63;;;;;;;4.12;96.33;97574.19;5032036;28;20046;-73
2020/12/06 07:03:54;;;;;;;33.28;21.13;;;;;;;4.18;95.73;97581.63;5031572;28;20400;-74
2020/12/06 07:06:48;;;;;;;33.10;21.27;;;;;;;4.39;94.20;97576.22;5031414;28;20037;-74
2020/12/06 07:09:22;;;;;;;32.60;20.52;;;;;;;4.59;93.16;97578.53;5031255;28;20049;-73
2020/12/06 07:11:49;;;;;;;32.97;21.23;;;;;;;4.66;92.57;97574.69;5047338;28;20119;-73
2020/12/06 07:14:16;;;;;;;35.72;22.05;;;;;;;5.04;90.04;97591.63;5031919;28;20139;-73
2020/12/06 07:16:42;;;;;;;33.85;20.80;;;;;;;5.07;90.03;97582.81;5031467;28;20041;-73
2020/12/06 07:19:07;;;;;;;32.75;20.77;;;;;;;5.07;89.62;97585.44;5032182;28;20044;-74
2020/12/06 07:21:36;;;;;;;32.90;20.45;;;;;;;5.51;87.11;97598.41;5032886;28;20049;-74
2020/12/06 07:24:03;;;;;;;35.25;21.00;;;;;;;5.34;87.83;97590.78;5035441;28;20049;-73
2020/12/06 07:26:29;;;;;;;33.08;19.65;;;;;;;5.17;88.23;97582.22;5035290;28;20045;-73
2020/12/06 07:28:56;;;;;;;31.15;19.90;;;;;;;5.27;88.00;97582.50;5048278;28;20049;-74
2020/12/06 07:31:24;;;;;;;28.92;19.55;;;;;;;5.30;88.13;97576.25;5042299;28;20132;-74
2020/12/06 07:33:50;;;;;;;31.85;19.95;;;;;;;5.17;89.38;97592.59;5055259;28;20403;-73
2020/12/06 07:36:16;;;;;;;30.17;19.60;;;;;;;5.17;88.97;97577.00;5055634;28;20056;-73
2020/12/06 07:38:42;;;;;;;30.20;20.02;;;;;;;5.27;88.60;97566.91;5055207;28;20049;-73
2020/12/06 07:41:08;;;;;;;28.08;19.10;;;;;;;5.15;89.06;97557.22;5055401;28;20400;-73
2020/12/06 07:43:34;;;;;;;31.20;20.02;;;;;;;5.17;88.89;97560.56;5054741;28;20484;-74
2020/12/06 07:46:14;;;;;;;30.52;20.98;;;;;;;5.22;89.02;97544.72;5054663;28;20060;-73
2020/12/06 07:48:40;;;;;;;32.75;20.95;;;;;;;5.20;88.80;97570.78;5054433;28;20114;-74
2020/12/06 07:51:06;;;;;;;31.48;19.88;;;;;;;5.28;89.18;97571.16;5054781;28;20407;-73
2020/12/06 07:53:49;;;;;;;34.65;20.55;;;;;;;5.33;88.08;97560.50;5054351;28;20048;-73
2020/12/06 07:56:19;;;;;;;29.50;20.13;;;;;;;5.52;87.43;97555.06;5054987;28;20041;-74
2020/12/06 07:58:54;;;;;;;32.05;20.85;;;;;;;5.59;87.57;97565.94;5041994;28;20087;-74
2020/12/06 08:01:20;;;;;;;34.10;21.08;;;;;;;5.72;86.46;97551.25;5040339;28;20455;-77
2020/12/06 08:03:51;;;;;;;29.60;19.20;;;;;;;5.68;87.62;97558.41;5054679;28;20045;-73
2020/12/06 08:06:17;;;;;;;32.45;20.48;;;;;;;5.72;86.97;97556.47;5053694;28;20463;-73
2020/12/06 08:08:48;;;;;;;28.92;19.20;;;;;;;5.84;85.65;97554.88;5052824;28;20523;-73
2020/12/06 08:11:16;;;;;;;33.33;20.27;;;;;;;5.94;86.28;97557.75;5054815;28;20045;-73
2020/12/06 08:13:42;;;;;;;34.53;21.33;;;;;;;6.06;84.63;97573.47;5054099;28;20045;-73
2020/12/06 08:16:09;;;;;;;33.47;20.75;;;;;;;6.15;83.81;97551.25;5054290;28;20048;-74
2020/12/06 08:18:35;;;;;;;31.27;20.70;;;;;;;6.25;83.61;97560.16;5053253;28;20052;-74
2020/12/06 08:21:01;;;;;;;29.42;20.10;;;;;;;6.32;83.50;97555.41;5053349;28;20123;-74
2020/12/06 08:23:36;;;;;;;31.15;20.38;;;;;;;6.15;84.03;97545.19;5053761;28;20049;-73
2020/12/06 08:26:03;;;;;;;28.73;19.10;;;;;;;6.16;84.13;97549.50;5053805;28;20049;-74
2020/12/06 08:28:30;;;;;;;29.70;19.35;;;;;;;6.08;84.45;97550.78;5053696;28;20045;-75
2020/12/06 08:30:56;;;;;;;31.23;20.27;;;;;;;6.16;83.95;97549.50;5054119;28;20433;-74
2020/12/06 08:33:23;;;;;;;34.03;20.55;;;;;;;6.33;83.78;97556.25;5053666;28;20400;-75
2020/12/06 08:35:53;;;;;;;27.92;19.33;;;;;;;6.92;80.49;97550.72;5054061;28;20472;-74
2020/12/06 08:38:20;;;;;;;27.90;17.92;;;;;;;7.26;79.73;97570.22;5053723;28;20088;-75
2020/12/06 08:41:15;;;;;;;28.30;18.77;;;;;;;7.77;77.71;97542.47;5053542;28;20148;-74
2020/12/06 08:43:53;;;;;;;30.80;17.70;;;;;;;8.03;77.19;97553.69;5048739;28;20053;-74
2020/12/06 08:46:21;;;;;;;26.08;17.08;;;;;;;8.38;74.65;97550.38;5054111;28;20049;-74
2020/12/06 08:48:52;;;;;;;23.48;16.17;;;;;;;8.74;73.96;97546.94;5053740;28;20098;-74
2020/12/06 08:51:31;;;;;;;24.33;17.35;;;;;;;8.90;72.47;97559.72;5052875;28;20056;-74
2020/12/06 08:54:02;;;;;;;25.50;17.02;;;;;;;8.86;73.56;97560.06;5053807;28;20048;-74
2020/12/06 08:56:39;;;;;;;24.10;15.82;;;;;;;8.87;71.95;97546.06;5053434;28;20071;-75
2020/12/06 08:59:13;;;;;;;25.27;16.08;;;;;;;8.92;71.98;97544.75;5052745;28;20402;-74
2020/12/06 09:01:49;;;;;;;27.30;17.58;;;;;;;9.01;71.24;97539.81;5053564;28;20041;-74
2020/12/06 09:04:16;;;;;;;23.27;15.23;;;;;;;9.40;70.07;97529.91;5069079;28;20507;-74
2020/12/06 09:06:43;;;;;;;26.55;15.65;;;;;;;9.41;70.50;97527.19;5053082;28;20132;-75
2020/12/06 09:09:09;;;;;;;26.98;17.48;;;;;;;9.70;70.37;97533.75;5052481;28;20044;-75
2020/12/06 09:11:35;;;;;;;22.65;14.55;;;;;;;9.89;68.99;97523.53;5052842;28;20065;-74
2020/12/06 09:14:01;;;;;;;25.20;14.65;;;;;;;9.71;70.72;97533.63;5053781;28;20072;-74
2020/12/06 09:16:27;;;;;;;22.40;15.15;;;;;;;9.62;70.88;97532.56;5051409;28;20065;-77
2020/12/06 09:18:53;;;;;;;25.02;15.43;;;;;;;9.34;71.26;97527.75;5049210;28;20124;-75
2020/12/06 09:21:20;;;;;;;26.48;17.33;;;;;;;9.21;72.05;97520.84;5052932;28;20112;-76
2020/12/06 09:23:47;;;;;;;24.45;15.68;;;;;;;9.14;72.81;97535.31;5031963;28;20046;-74
2020/12/06 09:26:13;;;;;;;25.75;15.30;;;;;;;9.17;72.76;97526.41;5046674;28;20087;-74
2020/12/06 09:28:39;;;;;;;21.77;15.32;;;;;;;9.42;71.09;97521.00;5052465;28;20136;-72
2020/12/06 09:31:05;;;;;;;26.58;16.58;;;;;;;9.49;70.16;97508.28;5052113;28;20041;-74
2020/12/06 09:33:31;;;;;;;27.88;17.02;;;;;;;9.12;71.74;97513.69;5052436;28;20480;-75
2020/12/06 09:35:57;;;;;;;29.85;18.27;;;;;;;8.59;72.99;97499.25;5067549;28;20106;-75
2020/12/06 09:38:23;;;;;;;29.20;18.33;;;;;;;8.67;73.09;97510.94;5052989;28;20048;-71
2020/12/06 09:40:49;;;;;;;30.33;19.25;;;;;;;8.21;74.72;97505.41;5051702;28;20119;-73
2020/12/06 09:43:16;;;;;;;28.75;18.42;;;;;;;8.11;75.90;97499.19;5052581;28;20045;-75
2020/12/06 09:45:42;;;;;;;29.70;18.88;;;;;;;8.31;76.59;97507.38;5051769;28;20118;-74
2020/12/06 09:48:13;;;;;;;32.13;19.23;;;;;;;8.80;73.87;97496.00;5051798;28;20131;-74
2020/12/06 09:50:39;;;;;;;32.45;18.77;;;;;;;9.50;72.01;97481.19;5047388;28;20542;-75
2020/12/06 09:53:05;;;;;;;31.52;19.48;;;;;;;9.99;70.64;97486.97;5041827;28;20036;-75
2020/12/06 09:55:33;;;;;;;29.38;17.50;;;;;;;10.01;70.08;97479.84;5050705;28;20067;-75
2020/12/06 09:57:59;;;;;;;25.83;17.00;;;;;;;9.96;68.94;97477.59;5052739;28;20049;-74
2020/12/06 10:00:26;;;;;;;31.52;17.65;;;;;;;9.79;69.38;97464.97;5052521;28;20079;-76
2020/12/06 10:02:53;;;;;;;31.42;17.40;;;;;;;9.74;70.30;97472.38;5051148;28;20102;-74
2020/12/06 10:05:18;;;;;;;34.15;17.65;;;;;;;9.71;70.08;97462.13;5052291;28;20457;-74
2020/12/06 10:07:44;;;;;;;28.50;17.48;;;;;;;9.65;70.47;97458.22;5052176;28;20132;-74
2020/12/06 10:10:10;;;;;;;28.83;17.00;;;;;;;9.79;71.02;97467.59;5052265;28;20103;-70
2020/12/06 10:12:36;;;;;;;29.27;16.75;;;;;;;9.94;69.03;97457.72;5051828;28;20045;-73
2020/12/06 10:15:03;;;;;;;27.92;15.60;;;;;;;10.27;68.18;97466.44;5052604;28;20045;-75
2020/12/06 10:17:31;;;;;;;24.92;15.45;;;;;;;10.60;67.38;97465.53;5052164;28;20056;-77
2020/12/06 10:19:56;;;;;;;26.83;14.43;;;;;;;10.92;66.55;97460.28;5052226;28;20053;-74
2020/12/06 10:22:22;;;;;;;26.25;15.68;;;;;;;11.55;65.95;97463.78;5052459;28;20041;-74
2020/12/06 10:24:50;;;;;;;27.23;15.43;;;;;;;11.67;63.80;97464.53;5051626;28;20112;-75
2020/12/06 10:27:16;;;;;;;23.00;14.40;;;;;;;12.01;62.47;97465.09;5052010;28;20124;-73
2020/12/06 10:29:42;;;;;;;22.60;13.40;;;;;;;12.25;62.17;97458.63;5052113;28;20083;-76
2020/12/06 10:32:08;;;;;;;22.52;13.30;;;;;;;12.38;61.34;97461.84;5052075;28;20045;-77
2020/12/06 10:34:35;;;;;;;19.58;12.15;;;;;;;12.94;59.35;97459.50;5051517;28;20068;-76
2020/12/06 10:37:02;;;;;;;18.40;12.07;;;;;;;13.53;57.58;97440.00;5052165;28;20033;-77
2020/12/06 10:39:28;;;;;;;20.40;12.75;;;;;;;13.70;56.70;97432.28;5052053;28;20481;-75
2020/12/06 10:41:55;;;;;;;19.33;12.27;;;;;;;14.29;54.52;97424.91;5051562;28;20075;-75
2020/12/06 10:44:22;;;;;;;22.00;12.80;;;;;;;14.58;53.80;97427.31;5051847;28;20049;-77
2020/12/06 10:46:49;;;;;;;20.63;12.80;;;;;;;14.14;54.79;97411.38;5050867;28;20099;-75
2020/12/06 10:49:15;;;;;;;20.50;13.45;;;;;;;14.67;53.88;97401.84;5049974;28;20072;-76
2020/12/06 10:51:43;;;;;;;21.83;14.10;;;;;;;14.51;53.18;97415.69;5051497;28;20484;-75
2020/12/06 10:54:09;;;;;;;23.90;13.57;;;;;;;14.53;54.65;97402.34;5051867;28;20041;-75
2020/12/06 10:56:40;;;;;;;23.20;13.40;;;;;;;14.72;53.99;97402.22;5054962;28;20036;-75
2020/12/06 10:59:06;;;;;;;24.02;13.50;;;;;;;15.40;51.02;97419.19;5056124;28;20369;-75
2020/12/06 11:01:34;;;;;;;21.33;13.43;;;;;;;15.63;49.63;97406.25;5054481;28;20049;-80
2020/12/06 11:04:02;;;;;;;28.40;12.38;;;;;;;15.31;50.50;97418.28;5054836;28;20045;-76
2020/12/06 11:06:27;;;;;;;21.30;12.68;;;;;;;15.09;51.28;97424.94;5056160;28;20040;-76
2020/12/06 11:08:53;;;;;;;22.55;11.82;;;;;;;14.83;53.17;97409.06;5070089;28;20325;-75
2020/12/06 11:11:21;;;;;;;21.42;11.80;;;;;;;14.96;52.56;97419.22;5055771;28;20052;-76
2020/12/06 11:13:48;;;;;;;19.15;11.13;;;;;;;15.64;50.85;97415.81;5055279;28;20094;-75
2020/12/06 11:16:15;;;;;;;14.73;10.40;;;;;;;15.49;50.72;97412.94;5055875;28;20045;-76
2020/12/06 11:18:42;;;;;;;14.05;9.80;;;;;;;15.67;49.09;97420.78;5055006;28;20044;-76
2020/12/06 11:21:08;;;;;;;15.75;9.38;;;;;;;15.67;49.27;97418.13;5056115;28;20045;-75
2020/12/06 11:23:34;;;;;;;15.65;10.23;;;;;;;15.39;50.20;97423.63;5055105;28;20095;-78
2020/12/06 11:25:59;;;;;;;14.82;9.65;;;;;;;15.40;50.87;97435.03;5055542;28;20048;-74